Time;durP1;ratioP1;P1;durP2;ratioP2;P2;SDS_P1;SDS_P2;PMS_P1;PMS_P2;Temp;Humidity;BMP_temperature;BMP_pressure;BME280_temperature;BME280_humidity;BME280_pressure;Samples;Min_cycle;Max_cycle;Signal;HPM_P1;HPM_P2
2022/10/14 00:02:52;;;;;;;2.70;2.22;;;;;;;6.61;75.42;96521.00;6296715;28;20155;-68
2022/10/14 00:05:54;;;;;;;3.58;2.63;;;;;;;6.50;76.13;96529.41;6296390;28;20434;-68
2022/10/14 00:08:58;;;;;;;3.13;2.22;;;;;;;6.51;76.32;96527.63;6296329;28;20044;-68
2022/10/14 00:12:02;;;;;;;2.75;2.55;;;;;;;6.41;76.55;96529.91;6296406;28;20504;-69
2022/10/14 00:15:06;;;;;;;3.03;2.58;;;;;;;6.50;76.47;96528.56;6294847;28;20131;-69
2022/10/14 00:18:11;;;;;;;3.85;3.20;;;;;;;6.45;76.66;96525.34;6296194;28;20037;-69
2022/10/14 00:21:16;;;;;;;4.90;3.63;;;;;;;6.44;76.30;96523.69;6296187;28;20055;-68
2022/10/14 00:24:21;;;;;;;3.45;2.78;;;;;;;6.50;77.17;96536.41;6296043;28;20044;-68
2022/10/14 00:27:25;;;;;;;3.58;3.03;;;;;;;6.70;76.29;96530.09;6295933;28;20040;-68
2022/10/14 00:30:29;;;;;;;4.35;3.08;;;;;;;6.73;76.29;96536.00;6296043;28;20044;-68
2022/10/14 00:33:32;;;;;;;;;;;;;;;6.67;75.96;96531.09;6296390;28;20036;-69
2022/10/14 00:36:35;;;;;;;2.97;2.50;;;;;;;6.57;76.30;96540.41;6296061;28;19916;-69
2022/10/14 00:39:40;;;;;;;1.80;1.38;;;;;;;6.65;76.29;96540.84;6295815;28;20043;-70
2022/10/14 00:42:44;;;;;;;4.45;2.92;;;;;;;6.50;76.65;96544.25;6295535;28;20056;-68
2022/10/14 00:45:48;;;;;;;;;;;;;;;6.57;76.31;96550.00;6296180;28;20036;-69
2022/10/14 00:48:53;;;;;;;2.58;2.38;;;;;;;6.49;76.60;96553.03;6295698;28;19916;-71
2022/10/14 00:52:10;;;;;;;3.00;2.65;;;;;;;6.37;77.09;96551.06;6295545;28;20036;-68
2022/10/14 00:55:18;;;;;;;2.60;2.40;;;;;;;6.12;77.61;96552.38;6295619;28;20040;-68
2022/10/14 00:58:21;;;;;;;2.75;2.42;;;;;;;6.12;78.12;96560.22;6294028;28;20036;-69
2022/10/14 01:01:25;;;;;;;3.17;2.65;;;;;;;6.14;78.25;96555.72;6295654;28;20036;-70
2022/10/14 01:04:29;;;;;;;3.40;2.90;;;;;;;6.42;77.60;96557.72;6294052;28;20051;-70
2022/10/14 01:07:58;;;;;;;;;;;;;;;6.52;76.31;96558.09;6295188;28;20040;-69
2022/10/14 01:11:28;;;;;;;2.65;2.45;;;;;;;6.40;76.32;96558.75;6294539;28;19920;-68
2022/10/14 01:14:48;;;;;;;3.38;2.67;;;;;;;6.30;76.38;96559.22;6295292;28;20040;-68
2022/10/14 01:17:57;;;;;;;2.92;2.40;;;;;;;6.27;76.19;96559.38;6295224;28;20561;-68
2022/10/14 01:21:14;;;;;;;2.25;2.10;;;;;;;6.21;76.46;96559.72;6295201;28;20040;-69
2022/10/14 01:24:48;;;;;;;2.92;2.60;;;;;;;6.18;76.75;96565.09;6293566;28;20048;-69
2022/10/14 01:28:09;;;;;;;2.92;2.53;;;;;;;6.35;76.35;96569.44;6295267;28;20044;-69
2022/10/14 01:31:21;;;;;;;2.85;2.58;;;;;;;6.40;75.09;96566.59;6295156;28;20041;-70
2022/10/14 01:34:37;;;;;;;2.13;1.90;;;;;;;6.33;75.42;96570.44;6295288;28;20039;-68
2022/10/14 01:37:52;;;;;;;2.55;2.35;;;;;;;6.17;75.67;96573.88;6295243;28;20040;-68
2022/10/14 01:41:42;;;;;;;2.05;1.63;;;;;;;6.27;75.46;96569.00;6294761;28;20048;-69
2022/10/14 01:44:53;;;;;;;2.83;2.58;;;;;;;6.34;75.53;96574.75;6293327;28;20058;-68
2022/10/14 01:47:59;;;;;;;2.70;2.50;;;;;;;6.33;76.36;96570.44;6294990;28;20145;-69
2022/10/14 01:51:11;;;;;;;3.25;2.50;;;;;;;6.45;75.93;96573.25;6294747;28;20387;-69
2022/10/14 01:54:23;;;;;;;3.45;2.70;;;;;;;6.53;75.78;96572.84;6294686;28;20399;-69
2022/10/14 01:57:32;;;;;;;4.00;3.33;;;;;;;6.62;75.39;96569.72;6295433;28;20045;-70
2022/10/14 02:00:37;;;;;;;2.90;2.47;;;;;;;6.58;75.60;96573.44;6294764;28;20045;-68
2022/10/14 02:03:44;;;;;;;2.67;2.03;;;;;;;6.66;74.97;96571.25;6294415;28;20441;-69
2022/10/14 02:07:15;;;;;;;2.97;2.67;;;;;;;6.46;75.46;96566.28;6294521;28;20387;-68
2022/10/14 02:10:26;;;;;;;2.97;2.28;;;;;;;6.32;76.20;96576.63;6293851;28;20053;-70
2022/10/14 02:13:48;;;;;;;3.17;2.70;;;;;;;6.14;76.88;96568.78;6294663;28;20045;-68
2022/10/14 02:17:03;;;;;;;2.88;2.67;;;;;;;5.90;77.71;96570.03;6294396;28;20135;-68
2022/10/14 02:20:12;;;;;;;3.08;2.72;;;;;;;5.79;78.16;96568.81;6297791;28;20497;-69
2022/10/14 02:23:41;;;;;;;4.55;3.25;;;;;;;6.11;78.20;96578.56;6298217;28;20048;-70
2022/10/14 02:26:49;;;;;;;3.15;2.80;;;;;;;6.26;77.96;96581.22;6298710;28;20422;-73
2022/10/14 02:29:53;;;;;;;3.13;2.83;;;;;;;6.35;77.87;96586.91;6299396;28;20044;-68
2022/10/14 02:32:58;;;;;;;2.85;2.35;;;;;;;6.45;77.50;96588.09;6297326;28;20579;-69
2022/10/14 02:36:02;;;;;;;3.97;2.35;;;;;;;6.59;77.31;96596.03;6298546;28;20047;-69
2022/10/14 02:39:10;;;;;;;2.95;2.67;;;;;;;6.66;76.64;96594.78;6298367;28;20052;-70
2022/10/14 02:42:12;;;;;;;3.35;2.83;;;;;;;6.60;76.93;96597.75;6297686;28;20583;-70
2022/10/14 02:45:17;;;;;;;;;;;;;;;6.75;76.55;96596.91;6298811;28;20040;-69
2022/10/14 02:48:19;;;;;;;3.25;2.60;;;;;;;6.83;76.31;96593.88;6298274;28;19923;-69
2022/10/14 02:51:21;;;;;;;3.10;2.60;;;;;;;6.96;75.31;96604.50;6298196;28;20051;-69
2022/10/14 02:54:22;;;;;;;3.35;3.05;;;;;;;7.01;75.00;96592.03;6298179;28;20050;-68
2022/10/14 02:57:29;;;;;;;2.95;2.58;;;;;;;6.93;75.34;96602.06;6298062;28;20037;-70
2022/10/14 03:00:31;;;;;;;2.35;2.15;;;;;;;6.92;75.06;96598.59;6297502;28;20053;-69
2022/10/14 03:03:35;;;;;;;2.42;1.95;;;;;;;6.88;75.31;96614.53;6297688;28;20418;-69
2022/10/14 03:06:38;;;;;;;2.40;2.20;;;;;;;6.78;75.86;96611.59;6297493;28;20040;-69
2022/10/14 03:09:42;;;;;;;4.00;2.15;;;;;;;6.71;75.94;96610.25;6297427;28;20406;-69
2022/10/14 03:12:45;;;;;;;1.95;1.75;;;;;;;6.75;75.74;96614.38;6297305;28;20146;-69
2022/10/14 03:15:52;;;;;;;2.40;2.20;;;;;;;6.67;75.91;96609.53;6297725;28;20056;-69
2022/10/14 03:18:58;;;;;;;2.25;2.10;;;;;;;6.62;76.07;96614.16;6297545;28;20052;-69
2022/10/14 03:22:00;;;;;;;1.45;1.33;;;;;;;6.72;75.80;96618.00;6297166;28;20182;-69
2022/10/14 03:25:04;;;;;;;2.45;2.20;;;;;;;6.62;75.64;96611.56;6297507;28;20425;-71
2022/10/14 03:28:06;;;;;;;2.08;1.90;;;;;;;6.65;76.35;96616.66;6297242;28;20051;-68
2022/10/14 03:31:07;;;;;;;1.98;1.83;;;;;;;6.73;76.02;96624.91;6295792;28;20037;-69
2022/10/14 03:34:09;;;;;;;3.20;2.13;;;;;;;6.74;75.83;96624.00;6296791;28;20174;-69
2022/10/14 03:37:10;;;;;;;2.30;2.10;;;;;;;6.79;76.01;96633.34;6297000;28;20052;-69
2022/10/14 03:40:14;;;;;;;2.45;2.20;;;;;;;6.82;75.88;96633.19;6297001;28;20044;-69
2022/10/14 03:43:16;;;;;;;1.80;1.70;;;;;;;6.83;75.86;96632.28;6296969;28;20036;-68
2022/10/14 03:46:17;;;;;;;2.17;1.98;;;;;;;7.08;75.35;96634.41;6296984;28;20418;-69
2022/10/14 03:49:19;;;;;;;4.57;3.00;;;;;;;7.19;74.85;96648.59;6296616;28;20044;-68
2022/10/14 03:52:22;;;;;;;2.78;2.08;;;;;;;7.28;74.79;96641.16;6296731;28;20045;-69
2022/10/14 03:55:24;;;;;;;2.47;2.17;;;;;;;7.63;73.53;96641.78;6296895;28;20041;-69
2022/10/14 03:58:31;;;;;;;2.53;1.80;;;;;;;7.78;73.15;96645.31;6296629;28;20453;-69
2022/10/14 04:01:35;;;;;;;1.88;1.77;;;;;;;7.92;71.84;96647.97;6296504;28;20048;-69
2022/10/14 04:04:41;;;;;;;2.50;2.10;;;;;;;7.88;72.04;96636.00;6296506;28;20044;-69
2022/10/14 04:07:45;;;;;;;2.38;2.17;;;;;;;7.81;72.41;96645.13;6296481;28;20048;-70
2022/10/14 04:10:54;;;;;;;1.83;1.73;;;;;;;7.95;71.55;96647.78;6296220;28;20135;-69
2022/10/14 04:14:00;;;;;;;2.13;1.80;;;;;;;7.97;71.47;96645.94;6294919;28;20041;-69
2022/10/14 04:17:04;;;;;;;2.65;2.35;;;;;;;8.02;71.23;96643.06;6295927;28;20048;-69
2022/10/14 04:20:06;;;;;;;2.08;1.88;;;;;;;8.08;71.23;96645.31;6296044;28;20048;-69
2022/10/14 04:23:08;;;;;;;1.48;1.38;;;;;;;8.18;70.83;96643.84;6296045;28;20067;-69
2022/10/14 04:26:09;;;;;;;2.47;2.28;;;;;;;8.31;70.30;96638.72;6295996;28;20052;-69
2022/10/14 04:29:14;;;;;;;2.25;2.00;;;;;;;8.53;70.20;96640.94;6295921;28;20040;-69
2022/10/14 04:32:19;;;;;;;2.92;2.38;;;;;;;9.03;68.63;96649.25;6295909;28;20554;-69
2022/10/14 04:35:20;;;;;;;3.72;3.20;;;;;;;9.56;66.70;96645.00;6295484;28;20044;-69
2022/10/14 04:38:21;;;;;;;4.90;3.83;;;;;;;10.14;64.77;96648.25;6295643;28;20036;-69
2022/10/14 04:41:28;;;;;;;3.25;2.80;;;;;;;10.50;62.48;96651.06;6294938;28;20083;-69
2022/10/14 04:44:30;;;;;;;1.90;1.70;;;;;;;10.71;61.68;96651.38;6295537;28;20045;-69
2022/10/14 04:47:34;;;;;;;2.67;2.47;;;;;;;10.90;61.11;96655.34;6295502;28;20414;-69
2022/10/14 04:50:40;;;;;;;2.50;2.22;;;;;;;11.02;60.96;96659.78;6295609;28;20395;-69
2022/10/14 04:53:41;;;;;;;3.55;2.55;;;;;;;11.10;60.51;96654.81;6295647;28;20056;-69
2022/10/14 04:56:45;;;;;;;3.55;2.95;;;;;;;11.09;60.42;96661.00;6295579;28;20130;-69
2022/10/14 04:59:49;;;;;;;;;;;;;;;11.23;60.12;96668.78;6295718;28;20049;-69
2022/10/14 05:02:50;;;;;;;2.85;2.33;;;;;;;11.23;59.18;96668.78;6295237;28;20449;-68
2022/10/14 05:05:51;;;;;;;3.22;2.30;;;;;;;11.13;59.41;96666.94;6295126;28;20403;-69
2022/10/14 05:08:53;;;;;;;3.92;3.13;;;;;;;11.14;59.05;96679.97;6295362;28;20081;-69
2022/10/14 05:11:54;;;;;;;4.88;4.00;;;;;;;11.22;58.64;96669.75;6295175;28;20052;-69
2022/10/14 05:14:58;;;;;;;5.40;3.78;;;;;;;11.13;58.82;96667.78;6295534;28;20082;-68
2022/10/14 05:18:00;;;;;;;3.47;3.00;;;;;;;11.11;58.83;96674.94;6295113;28;20078;-69
2022/10/14 05:21:14;;;;;;;2.55;2.33;;;;;;;11.12;58.72;96681.88;6294760;28;20041;-70
2022/10/14 05:24:19;;;;;;;2.40;2.20;;;;;;;11.06;58.80;96677.03;6298039;28;20049;-69
2022/10/14 05:27:21;;;;;;;3.30;2.00;;;;;;;11.01;59.17;96679.13;6295141;28;20055;-69
2022/10/14 05:30:25;;;;;;;1.90;1.80;;;;;;;11.09;59.31;96676.81;6294836;28;20036;-70
2022/10/14 05:33:27;;;;;;;;;;;;;;;11.58;58.09;96689.16;6295371;28;20041;-69
2022/10/14 05:36:30;;;;;;;2.22;2.03;;;;;;;11.80;56.90;96682.31;6294268;28;19921;-69
2022/10/14 05:39:34;;;;;;;2.30;2.10;;;;;;;11.95;56.04;96686.53;6294749;28;20410;-69
2022/10/14 05:42:41;;;;;;;3.85;2.97;;;;;;;11.98;56.25;96685.47;6294563;28;20045;-69
2022/10/14 05:45:45;;;;;;;2.58;2.17;;;;;;;12.23;55.38;96684.47;6293214;28;20407;-69
2022/10/14 05:48:46;;;;;;;2.38;2.17;;;;;;;12.09;55.32;96693.44;6294964;28;20411;-69
2022/10/14 05:51:51;;;;;;;5.40;3.80;;;;;;;11.94;55.53;96695.38;6294572;28;20052;-70
2022/10/14 05:54:56;;;;;;;2.80;2.53;;;;;;;11.92;55.22;96705.22;6298975;28;20041;-69
2022/10/14 05:58:00;;;;;;;1.90;1.73;;;;;;;11.90;55.07;96699.19;6299193;28;20036;-69
2022/10/14 06:01:02;;;;;;;;;;;;;;;11.68;55.68;96710.41;6299580;28;20427;-69
2022/10/14 06:04:06;;;;;;;3.03;2.72;;;;;;;11.61;56.08;96693.38;6298993;28;20385;-68
2022/10/14 06:07:11;;;;;;;2.95;2.40;;;;;;;11.62;56.40;96710.84;6297665;28;20467;-71
2022/10/14 06:10:12;;;;;;;3.88;3.47;;;;;;;11.65;56.23;96711.47;6298247;28;20048;-69
2022/10/14 06:13:16;;;;;;;;;;;;;;;12.16;54.68;96707.00;6299313;28;20486;-68
2022/10/14 06:16:18;;;;;;;2.95;2.65;;;;;;;12.08;54.64;96708.38;6299075;28;19962;-70
2022/10/14 06:19:21;;;;;;;2.60;2.40;;;;;;;12.39;54.43;96697.34;6298698;28;20521;-69
2022/10/14 06:22:27;;;;;;;2.60;2.33;;;;;;;13.40;52.24;96701.00;6298606;28;20041;-70
2022/10/14 06:25:34;;;;;;;2.33;2.13;;;;;;;17.39;44.14;96698.22;6298688;28;20075;-69
2022/10/14 06:28:37;;;;;;;2.45;2.00;;;;;;;19.06;39.22;96711.09;6298402;28;20425;-69
2022/10/14 06:31:38;;;;;;;1.85;1.75;;;;;;;21.77;34.73;96715.13;6298737;28;20090;-68
2022/10/14 06:34:42;;;;;;;2.90;1.40;;;;;;;22.38;32.69;96718.84;6298754;28;20051;-68
2022/10/14 06:37:47;;;;;;;2.65;1.60;;;;;;;24.03;29.06;96710.09;6298001;28;20032;-69
2022/10/14 06:40:53;;;;;;;2.20;1.90;;;;;;;23.20;29.88;96726.28;6298039;28;20052;-69
2022/10/14 06:43:58;;;;;;;2.47;1.73;;;;;;;24.93;28.05;96744.63;6297916;28;20110;-69
2022/10/14 06:47:01;;;;;;;1.58;1.48;;;;;;;27.04;25.88;96731.69;6298058;28;20135;-68
2022/10/14 06:50:03;;;;;;;2.65;1.63;;;;;;;28.21;24.31;96724.69;6298132;28;20041;-70
2022/10/14 06:53:06;;;;;;;1.52;1.42;;;;;;;28.32;23.18;96734.81;6296916;28;20048;-69
2022/10/14 06:56:10;;;;;;;2.42;1.50;;;;;;;28.63;22.30;96735.97;6297052;28;20502;-69
2022/10/14 06:59:12;;;;;;;1.23;0.95;;;;;;;30.42;21.51;96731.66;6297887;28;20047;-69
2022/10/14 07:02:16;;;;;;;2.28;1.35;;;;;;;32.97;19.06;96729.69;6297995;28;20052;-69
2022/10/14 07:05:20;;;;;;;2.55;1.17;;;;;;;33.36;17.66;96738.03;6297154;28;20086;-70
2022/10/14 07:08:22;;;;;;;1.70;1.60;;;;;;;32.00;18.44;96742.19;6296872;28;20061;-69
2022/10/14 07:11:23;;;;;;;1.33;1.20;;;;;;;31.66;19.16;96733.78;6297470;28;20131;-70
2022/10/14 07:14:27;;;;;;;1.13;1.02;;;;;;;32.23;18.16;96743.22;6297755;28;20516;-69
2022/10/14 07:17:29;;;;;;;1.30;1.20;;;;;;;30.72;19.36;96739.00;6297067;28;20190;-69
2022/10/14 07:20:33;;;;;;;0.98;0.88;;;;;;;25.85;23.89;96757.22;6297664;28;20044;-69
2022/10/14 07:23:37;;;;;;;3.08;1.60;;;;;;;24.48;25.99;96725.13;6297376;28;20045;-68
2022/10/14 07:26:40;;;;;;;2.15;1.58;;;;;;;26.97;23.38;96738.94;6297489;28;20051;-68
2022/10/14 07:29:42;;;;;;;2.35;1.75;;;;;;;30.46;20.08;96744.78;6297150;28;20047;-69
2022/10/14 07:32:44;;;;;;;1.95;1.83;;;;;;;32.13;18.08;96750.09;6297219;28;20040;-68
2022/10/14 07:35:48;;;;;;;4.93;2.22;;;;;;;31.84;17.79;96749.16;6297404;28;20414;-68
2022/10/14 07:38:49;;;;;;;4.68;2.72;;;;;;;32.47;17.69;96766.63;6297014;28;20040;-69
2022/10/14 07:41:50;;;;;;;3.22;2.00;;;;;;;33.54;16.73;96754.16;6296872;28;20048;-69
2022/10/14 07:44:56;;;;;;;4.97;2.00;;;;;;;33.90;16.69;96760.16;6295929;28;20036;-69
2022/10/14 07:47:57;;;;;;;3.13;2.03;;;;;;;31.47;18.53;96752.09;6296770;28;20095;-69
2022/10/14 07:51:01;;;;;;;2.35;1.95;;;;;;;28.17;21.77;96745.09;6296891;28;20449;-69
2022/10/14 07:54:10;;;;;;;4.55;2.83;;;;;;;27.61;22.50;96754.56;6296437;28;20498;-68
2022/10/14 07:57:15;;;;;;;2.70;2.38;;;;;;;25.26;24.19;96744.13;6296734;28;20040;-68
2022/10/14 08:00:16;;;;;;;5.97;3.65;;;;;;;25.26;24.40;96765.69;6296668;28;20527;-70
2022/10/14 08:03:23;;;;;;;5.20;2.95;;;;;;;25.44;24.20;96766.00;6296256;28;20048;-68
2022/10/14 08:06:25;;;;;;;4.38;2.38;;;;;;;24.46;25.23;96764.00;6296313;28;20051;-69
2022/10/14 08:09:26;;;;;;;2.90;1.98;;;;;;;22.37;27.75;96761.91;6294920;28;20413;-68
2022/10/14 08:12:31;;;;;;;5.10;3.35;;;;;;;21.48;29.00;96762.03;6296131;28;20536;-70
2022/10/14 08:15:39;;;;;;;3.78;3.05;;;;;;;20.03;31.04;96780.38;6295557;28;20182;-69
2022/10/14 08:18:46;;;;;;;4.72;3.20;;;;;;;18.85;33.17;96774.56;6296288;28;20079;-70
2022/10/14 08:21:48;;;;;;;5.30;3.63;;;;;;;18.11;34.63;96762.31;6294574;28;20036;-70
2022/10/14 08:24:49;;;;;;;3.17;2.67;;;;;;;18.72;33.79;96784.78;6294616;28;20441;-70
2022/10/14 08:27:53;;;;;;;3.38;2.90;;;;;;;20.04;31.75;96766.88;6295967;28;20033;-71
2022/10/14 08:30:54;;;;;;;3.08;2.45;;;;;;;22.67;27.83;96773.63;6295948;28;20126;-70
2022/10/14 08:33:56;;;;;;;3.45;2.63;;;;;;;25.05;25.03;96775.41;6295563;28;20060;-69
2022/10/14 08:37:03;;;;;;;3.20;2.58;;;;;;;26.39;22.95;96774.47;6295649;28;20045;-69
2022/10/14 08:40:05;;;;;;;2.53;2.22;;;;;;;25.43;23.50;96783.22;6295300;28;20056;-70
2022/10/14 08:43:23;;;;;;;2.27;2.07;;;;;;;25.28;23.88;96774.41;6295260;28;20044;-68
2022/10/14 08:46:50;;;;;;;2.70;2.35;;;;;;;28.12;21.25;96794.41;6295392;28;20102;-68
2022/10/14 08:50:02;;;;;;;4.22;2.97;;;;;;;29.41;19.96;96795.25;6295446;28;20413;-69
2022/10/14 08:53:22;;;;;;;4.72;3.00;;;;;;;29.83;19.41;96800.97;6295716;28;20047;-69
2022/10/14 08:56:24;;;;;;;4.13;2.30;;;;;;;27.76;21.24;96803.81;6295554;28;20135;-69
2022/10/14 08:59:28;;;;;;;2.45;1.83;;;;;;;28.11;20.93;96803.59;6295369;28;20472;-69
2022/10/14 09:02:45;;;;;;;2.58;2.38;;;;;;;26.53;22.56;96797.00;6294665;28;20152;-70
2022/10/14 09:05:57;;;;;;;2.33;1.58;;;;;;;26.32;22.92;96798.72;6295315;28;20047;-69
2022/10/14 09:09:10;;;;;;;2.60;2.40;;;;;;;24.71;24.61;96796.78;6295547;28;20051;-69
2022/10/14 09:12:26;;;;;;;2.53;2.33;;;;;;;22.10;27.59;96789.97;6295215;28;20041;-69
2022/10/14 09:15:39;;;;;;;4.70;2.10;;;;;;;20.16;30.33;96792.28;6295127;28;20072;-70
2022/10/14 09:18:59;;;;;;;2.25;2.03;;;;;;;19.22;31.86;96798.41;6295205;28;20044;-70
2022/10/14 09:22:14;;;;;;;3.90;3.17;;;;;;;18.58;33.16;96794.13;6295166;28;20045;-70
2022/10/14 09:25:19;;;;;;;4.05;2.60;;;;;;;17.60;34.59;96809.72;6295055;28;20067;-71
2022/10/14 09:28:35;;;;;;;4.32;3.33;;;;;;;16.99;35.68;96804.81;6297484;28;20041;-71
2022/10/14 09:31:39;;;;;;;4.93;2.92;;;;;;;16.21;37.11;96804.69;6300471;28;20094;-70
2022/10/14 09:34:49;;;;;;;4.18;3.50;;;;;;;15.94;37.92;96808.81;6299772;28;20058;-69
2022/10/14 09:37:53;;;;;;;4.93;4.13;;;;;;;15.76;38.58;96809.56;6299743;28;20148;-69
2022/10/14 09:40:58;;;;;;;5.72;3.33;;;;;;;15.46;39.06;96808.56;6299376;28;20062;-70
2022/10/14 09:44:32;;;;;;;3.75;2.97;;;;;;;15.42;39.38;96801.84;6298488;28;20460;-69
2022/10/14 09:48:02;;;;;;;4.00;3.42;;;;;;;15.40;39.38;96806.41;6294975;28;20045;-69
2022/10/14 09:51:08;;;;;;;5.38;4.53;;;;;;;15.33;39.72;96823.84;6298037;28;20052;-70
2022/10/14 09:54:22;;;;;;;5.07;3.47;;;;;;;15.39;39.68;96824.16;6298711;28;20059;-69
2022/10/14 09:57:27;;;;;;;4.18;3.17;;;;;;;15.43;39.81;96811.50;6299256;28;20732;-70
2022/10/14 10:00:33;;;;;;;3.75;3.25;;;;;;;15.50;39.83;96815.28;6299021;28;20076;-70
2022/10/14 10:03:38;;;;;;;3.35;2.97;;;;;;;15.63;39.62;96815.91;6299452;28;20492;-70
2022/10/14 10:06:51;;;;;;;5.30;3.45;;;;;;;15.67;39.34;96827.94;6299114;28;20040;-70
2022/10/14 10:09:55;;;;;;;4.15;3.53;;;;;;;15.84;38.69;96821.19;6298947;28;20047;-69
2022/10/14 10:12:57;;;;;;;4.45;3.88;;;;;;;16.01;38.44;96822.38;6298959;28;20131;-70
2022/10/14 10:16:03;;;;;;;3.80;3.05;;;;;;;16.41;37.67;96826.81;6298766;28;20048;-70
2022/10/14 10:19:31;;;;;;;4.18;3.40;;;;;;;16.61;37.32;96838.31;6298737;28;20059;-69
2022/10/14 10:22:37;;;;;;;4.60;3.53;;;;;;;17.98;35.25;96849.72;6298868;28;20048;-69
2022/10/14 10:25:44;;;;;;;4.32;3.50;;;;;;;17.78;35.32;96855.09;6298800;28;20040;-69
2022/10/14 10:28:48;;;;;;;4.82;3.40;;;;;;;16.86;36.80;96846.75;6298690;28;20048;-69
2022/10/14 10:32:08;;;;;;;3.70;3.10;;;;;;;16.12;38.02;96845.34;6298713;28;20488;-70
2022/10/14 10:35:54;;;;;;;5.30;3.00;;;;;;;15.54;38.85;96842.38;6298295;28;20478;-69
2022/10/14 10:39:04;;;;;;;4.47;3.40;;;;;;;14.95;39.93;96843.81;6289881;28;20651;-70
2022/10/14 10:42:24;;;;;;;6.43;3.45;;;;;;;14.73;40.47;96850.88;6298416;28;20507;-70
2022/10/14 10:45:39;;;;;;;6.10;3.78;;;;;;;14.38;41.36;96856.34;6298284;28;20041;-69
2022/10/14 10:48:54;;;;;;;4.70;3.67;;;;;;;14.46;41.44;96848.59;6298308;28;20086;-69
2022/10/14 10:52:16;;;;;;;;;;;;;;;14.73;40.33;96853.50;6298339;28;20076;-69
2022/10/14 10:55:34;;;;;;;3.83;3.08;;;;;;;14.62;41.09;96856.19;6298333;28;20313;-69
2022/10/14 10:59:14;;;;;;;5.72;3.90;;;;;;;14.51;41.53;96870.25;6298123;28;20041;-69
2022/10/14 11:02:36;;;;;;;5.03;3.83;;;;;;;14.20;42.90;96856.00;6297932;28;20535;-69
2022/10/14 11:05:52;;;;;;;5.05;4.47;;;;;;;14.17;42.73;96866.84;6298164;28;20045;-69
2022/10/14 11:12:38;;;;;;;4.10;3.40;;;;;;;13.97;43.69;96870.22;6297451;28;20056;-70
2022/10/14 11:15:54;;;;;;;5.22;3.83;;;;;;;13.84;44.09;96871.19;6297467;28;20597;-69
2022/10/14 11:19:17;;;;;;;7.15;3.78;;;;;;;13.75;44.58;96877.16;6297889;28;20041;-69
2022/10/14 11:22:55;;;;;;;4.05;3.42;;;;;;;13.61;45.16;96877.41;6297515;28;20134;-70
2022/10/14 11:26:13;;;;;;;4.43;3.63;;;;;;;13.53;45.80;96875.38;6297094;28;20509;-70
2022/10/14 11:29:56;;;;;;;4.90;4.00;;;;;;;13.41;46.47;96869.19;6297207;28;20040;-69
2022/10/14 11:33:16;;;;;;;5.38;4.15;;;;;;;13.36;46.82;96881.94;6295371;28;20110;-69
2022/10/14 11:36:25;;;;;;;6.82;4.20;;;;;;;13.27;47.20;96872.03;6296956;28;20032;-69
2022/10/14 11:39:26;;;;;;;6.72;3.85;;;;;;;13.25;47.19;96879.22;6297065;28;20068;-70
2022/10/14 11:42:53;;;;;;;5.75;4.40;;;;;;;13.57;46.80;96883.91;6296887;28;20053;-70
2022/10/14 11:46:03;;;;;;;9.05;6.47;;;;;;;13.44;47.10;96879.53;6296734;28;20099;-69
2022/10/14 11:49:20;;;;;;;11.88;9.02;;;;;;;13.29;47.26;96901.84;6296583;28;20036;-69
2022/10/14 11:52:35;;;;;;;10.05;7.47;;;;;;;13.10;48.00;96891.78;6296047;28;20068;-69
2022/10/14 11:55:48;;;;;;;8.35;5.93;;;;;;;12.97;48.54;96902.41;6296642;28;20135;-70
2022/10/14 11:58:55;;;;;;;8.23;5.03;;;;;;;12.75;49.10;96897.03;6296545;28;20048;-70
2022/10/14 12:02:02;;;;;;;6.85;5.18;;;;;;;12.67;49.39;96896.75;6295707;28;20071;-69
2022/10/14 12:05:13;;;;;;;6.05;4.60;;;;;;;12.54;49.94;96892.38;6295780;28;20076;-70
2022/10/14 12:08:24;;;;;;;9.35;4.80;;;;;;;12.52;50.11;96902.19;6296073;28;20163;-69
2022/10/14 12:11:45;;;;;;;6.22;4.18;;;;;;;12.41;50.35;96907.41;6296239;28;20090;-69
2022/10/14 12:14:54;;;;;;;5.65;4.47;;;;;;;12.38;50.66;96910.25;6295329;28;20049;-70
2022/10/14 12:18:00;;;;;;;5.85;4.78;;;;;;;12.27;50.98;96910.19;6297175;28;20060;-69
2022/10/14 12:21:21;;;;;;;6.60;4.43;;;;;;;12.16;51.30;96918.00;6294228;28;20056;-69
2022/10/14 12:24:30;;;;;;;5.47;4.32;;;;;;;12.09;51.60;96914.97;6295812;28;20407;-68
2022/10/14 12:27:38;;;;;;;5.43;4.47;;;;;;;12.06;51.73;96926.56;6296117;28;20502;-69
2022/10/14 12:30:43;;;;;;;5.85;4.72;;;;;;;12.08;52.02;96923.81;6295811;28;20052;-70
2022/10/14 12:34:09;;;;;;;7.80;5.43;;;;;;;12.01;52.36;96926.03;6295814;28;20528;-68
2022/10/14 12:37:25;;;;;;;5.72;4.85;;;;;;;11.97;53.59;96929.81;6295652;28;20048;-69
2022/10/14 12:40:27;;;;;;;5.07;4.45;;;;;;;11.69;54.10;96928.22;6295658;28;20036;-69
2022/10/14 12:43:32;;;;;;;5.82;5.18;;;;;;;11.55;55.15;96931.81;6295361;28;20418;-70
2022/10/14 12:46:44;;;;;;;7.45;6.30;;;;;;;11.30;57.45;96930.00;6295598;28;20124;-70
2022/10/14 12:49:55;;;;;;;10.55;7.15;;;;;;;10.76;60.75;96936.16;6295455;28;20548;-70
2022/10/14 12:53:00;;;;;;;9.40;6.40;;;;;;;10.30;62.31;96936.44;6295134;28;20094;-71
2022/10/14 12:56:06;;;;;;;10.63;7.03;;;;;;;10.20;63.48;96935.28;6294626;28;20611;-69
2022/10/14 12:59:27;;;;;;;10.60;7.72;;;;;;;10.04;64.06;96939.81;6295433;28;20048;-70
2022/10/14 13:02:47;;;;;;;11.40;7.88;;;;;;;10.05;64.65;96949.41;6294800;28;20388;-68
2022/10/14 13:05:51;;;;;;;13.13;9.55;;;;;;;9.99;65.25;96941.88;6295442;28;20415;-69
2022/10/14 13:09:10;;;;;;;10.90;8.73;;;;;;;9.96;65.69;96942.88;6295329;28;20048;-68
2022/10/14 13:12:20;;;;;;;11.18;8.02;;;;;;;9.94;66.00;96946.59;6295139;28;20413;-69
2022/10/14 13:15:54;;;;;;;9.52;7.50;;;;;;;9.88;66.10;96946.00;6295445;28;20048;-69
2022/10/14 13:18:59;;;;;;;11.45;7.95;;;;;;;9.88;65.93;96930.25;6295105;28;20135;-69
2022/10/14 13:22:24;;;;;;;10.05;7.40;;;;;;;9.93;65.81;96939.63;6295428;28;20050;-69
2022/10/14 13:25:27;;;;;;;10.68;8.13;;;;;;;10.02;65.40;96946.94;6289113;28;20045;-69
2022/10/14 13:28:46;;;;;;;7.30;5.65;;;;;;;10.00;65.05;96948.84;6294992;28;20037;-69
2022/10/14 13:32:00;;;;;;;7.47;5.80;;;;;;;9.90;65.37;96949.38;6295152;28;20135;-70
2022/10/14 13:35:13;;;;;;;8.82;7.28;;;;;;;9.90;65.72;96954.63;6294962;28;20048;-70
2022/10/14 13:38:19;;;;;;;11.73;7.45;;;;;;;9.99;65.39;96957.63;6295393;28;20052;-69
2022/10/14 13:41:26;;;;;;;12.75;8.70;;;;;;;10.00;65.03;96954.94;6294518;28;20125;-69
2022/10/14 13:44:33;;;;;;;9.98;7.45;;;;;;;9.90;65.40;96954.63;6294683;28;20045;-69
2022/10/14 13:47:35;;;;;;;8.30;6.25;;;;;;;9.87;65.10;96953.97;6294595;28;20418;-68
2022/10/14 13:50:41;;;;;;;7.32;4.97;;;;;;;9.80;64.82;96957.94;6294433;28;20045;-71
2022/10/14 13:54:07;;;;;;;7.10;5.07;;;;;;;9.68;65.16;96970.00;6294686;28;20414;-69
2022/10/14 13:57:14;;;;;;;8.27;3.50;;;;;;;9.81;64.18;96964.88;6295012;28;20040;-69
2022/10/14 14:00:26;;;;;;;4.40;3.78;;;;;;;9.81;63.70;96964.88;6295099;28;20072;-69
2022/10/14 14:03:34;;;;;;;4.28;3.00;;;;;;;9.80;62.94;96976.31;6298449;28;20036;-69
2022/10/14 14:06:45;;;;;;;4.88;3.33;;;;;;;9.66;62.73;96971.88;6295969;28;20048;-70
2022/10/14 14:09:53;;;;;;;3.28;2.30;;;;;;;9.63;62.52;96967.66;6294189;28;20050;-69
2022/10/14 14:12:55;;;;;;;2.63;2.40;;;;;;;9.48;62.81;96967.72;6294011;28;20421;-69
2022/10/14 14:15:57;;;;;;;3.15;2.17;;;;;;;9.46;62.93;96962.56;6298733;28;20044;-70
2022/10/14 14:19:01;;;;;;;3.60;2.50;;;;;;;9.39;62.84;96959.44;6298569;28;20051;-69
2022/10/14 14:22:23;;;;;;;2.80;2.60;;;;;;;9.35;62.90;96963.19;6298448;28;20052;-69
2022/10/14 14:25:28;;;;;;;4.38;2.50;;;;;;;9.22;62.70;96963.03;6298743;28;20045;-70
2022/10/14 14:28:31;;;;;;;3.38;2.85;;;;;;;9.33;62.67;96974.72;6298565;28;20048;-70
2022/10/14 14:31:33;;;;;;;2.80;2.10;;;;;;;9.21;63.11;96971.03;6298472;28;20055;-70
2022/10/14 14:34:38;;;;;;;2.60;2.00;;;;;;;8.99;63.92;96966.16;6298404;28;20048;-71
2022/10/14 14:37:45;;;;;;;4.57;2.58;;;;;;;9.02;63.95;96980.88;6298507;28;20041;-69
2022/10/14 14:41:21;;;;;;;4.00;2.83;;;;;;;8.90;64.21;96967.53;6297102;28;20144;-69
2022/10/14 14:44:28;;;;;;;4.77;3.50;;;;;;;8.75;64.99;96978.91;6297931;28;20044;-70
2022/10/14 14:47:30;;;;;;;7.22;4.00;;;;;;;8.64;65.31;96970.78;6297814;28;20072;-70
2022/10/14 14:50:36;;;;;;;6.25;4.20;;;;;;;8.67;65.62;96966.19;6297712;28;20053;-69
2022/10/14 14:53:38;;;;;;;6.07;3.75;;;;;;;8.61;65.55;96965.69;6297584;28;20055;-69
2022/10/14 14:56:47;;;;;;;7.05;4.00;;;;;;;8.43;66.36;96968.38;6298297;28;20044;-70
2022/10/14 15:00:06;;;;;;;4.63;3.20;;;;;;;8.35;66.22;96981.06;6298042;28;20054;-70